sensor_id;sensor_type;location;lat;lon;timestamp;temperature;humidity
6333;DHT22;3199;49.102;8.856;2022-12-07T00:03:31;4.20;99.90
6333;DHT22;3199;49.102;8.856;2022-12-07T00:05:59;4.20;99.90
6333;DHT22;3199;49.102;8.856;2022-12-07T00:08:25;4.20;99.90
6333;DHT22;3199;49.102;8.856;2022-12-07T00:10:51;4.10;99.90
6333;DHT22;3199;49.102;8.856;2022-12-07T00:13:16;4.10;99.90
6333;DHT22;3199;49.102;8.856;2022-12-07T00:15:42;4.10;99.90
6333;DHT22;3199;49.102;8.856;2022-12-07T00:18:07;4.10;99.90
6333;DHT22;3199;49.102;8.856;2022-12-07T00:20:33;4.10;99.90
6333;DHT22;3199;49.102;8.856;2022-12-07T00:22:59;4.00;99.90
6333;DHT22;3199;49.102;8.856;2022-12-07T00:25:24;4.00;99.90
6333;DHT22;3199;49.102;8.856;2022-12-07T00:27:51;4.00;99.90
6333;DHT22;3199;49.102;8.856;2022-12-07T00:30:17;4.00;99.90
6333;DHT22;3199;49.102;8.856;2022-12-07T00:32:42;4.00;99.90
6333;DHT22;3199;49.102;8.856;2022-12-07T00:35:08;4.00;99.90
6333;DHT22;3199;49.102;8.856;2022-12-07T00:37:34;4.00;99.90
6333;DHT22;3199;49.102;8.856;2022-12-07T00:39:59;4.00;99.90
6333;DHT22;3199;49.102;8.856;2022-12-07T00:42:25;4.00;99.90
6333;DHT22;3199;49.102;8.856;2022-12-07T00:44:50;3.90;99.90
6333;DHT22;3199;49.102;8.856;2022-12-07T00:47:16;3.90;99.90
6333;DHT22;3199;49.102;8.856;2022-12-07T00:49:41;3.90;99.90
6333;DHT22;3199;49.102;8.856;2022-12-07T00:52:07;3.90;99.90
6333;DHT22;3199;49.102;8.856;2022-12-07T00:54:32;3.90;99.90
6333;DHT22;3199;49.102;8.856;2022-12-07T00:56:58;3.80;99.90
6333;DHT22;3199;49.102;8.856;2022-12-07T00:59:24;3.70;99.90
6333;DHT22;3199;49.102;8.856;2022-12-07T01:01:49;3.70;99.90
6333;DHT22;3199;49.102;8.856;2022-12-07T01:04:15;3.70;99.90
6333;DHT22;3199;49.102;8.856;2022-12-07T01:06:40;3.60;99.90
6333;DHT22;3199;49.102;8.856;2022-12-07T01:09:06;3.60;99.90
6333;DHT22;3199;49.102;8.856;2022-12-07T01:11:32;3.60;99.90
6333;DHT22;3199;49.102;8.856;2022-12-07T01:13:59;3.60;99.90
6333;DHT22;3199;49.102;8.856;2022-12-07T01:16:27;3.60;99.90
6333;DHT22;3199;49.102;8.856;2022-12-07T01:18:54;3.50;99.90
6333;DHT22;3199;49.102;8.856;2022-12-07T01:21:23;3.50;99.90
6333;DHT22;3199;49.102;8.856;2022-12-07T01:23:49;3.50;99.90
6333;DHT22;3199;49.102;8.856;2022-12-07T01:26:21;3.50;99.90
6333;DHT22;3199;49.102;8.856;2022-12-07T01:28:47;3.50;99.90
6333;DHT22;3199;49.102;8.856;2022-12-07T01:31:18;3.50;99.90
6333;DHT22;3199;49.102;8.856;2022-12-07T01:33:46;3.50;99.90
6333;DHT22;3199;49.102;8.856;2022-12-07T01:36:17;3.50;99.90
6333;DHT22;3199;49.102;8.856;2022-12-07T01:38:45;3.50;99.90
6333;DHT22;3199;49.102;8.856;2022-12-07T01:41:11;3.50;99.90
6333;DHT22;3199;49.102;8.856;2022-12-07T01:43:36;3.50;99.90
6333;DHT22;3199;49.102;8.856;2022-12-07T01:46:04;3.50;99.90
6333;DHT22;3199;49.102;8.856;2022-12-07T01:48:48;3.40;99.90
6333;DHT22;3199;49.102;8.856;2022-12-07T01:51:14;3.50;99.90
6333;DHT22;3199;49.102;8.856;2022-12-07T01:53:43;3.40;99.90
6333;DHT22;3199;49.102;8.856;2022-12-07T01:56:15;3.50;99.90
6333;DHT22;3199;49.102;8.856;2022-12-07T01:58:42;3.50;99.90
6333;DHT22;3199;49.102;8.856;2022-12-07T02:01:08;3.50;99.90
6333;DHT22;3199;49.102;8.856;2022-12-07T02:03:39;3.50;99.90
6333;DHT22;3199;49.102;8.856;2022-12-07T02:06:06;3.50;99.90
6333;DHT22;3199;49.102;8.856;2022-12-07T02:08:33;3.50;99.90
6333;DHT22;3199;49.102;8.856;2022-12-07T02:10:59;3.50;99.90
6333;DHT22;3199;49.102;8.856;2022-12-07T02:13:27;3.50;99.90
6333;DHT22;3199;49.102;8.856;2022-12-07T02:16:21;3.50;99.90
6333;DHT22;3199;49.102;8.856;2022-12-07T02:24:04;3.50;99.90
6333;DHT22;3199;49.102;8.856;2022-12-07T02:27:02;3.50;99.90
6333;DHT22;3199;49.102;8.856;2022-12-07T02:29:40;3.50;99.90
6333;DHT22;3199;49.102;8.856;2022-12-07T02:37:38;3.40;99.90
6333;DHT22;3199;49.102;8.856;2022-12-07T02:40:10;3.40;99.90
6333;DHT22;3199;49.102;8.856;2022-12-07T02:42:42;3.40;99.90
6333;DHT22;3199;49.102;8.856;2022-12-07T02:45:14;3.40;99.90
6333;DHT22;3199;49.102;8.856;2022-12-07T02:47:40;3.40;99.90
6333;DHT22;3199;49.102;8.856;2022-12-07T02:50:07;3.40;99.90
6333;DHT22;3199;49.102;8.856;2022-12-07T02:52:33;3.40;99.90
6333;DHT22;3199;49.102;8.856;2022-12-07T02:54:58;3.40;99.90
6333;DHT22;3199;49.102;8.856;2022-12-07T03:00:17;3.50;99.90
6333;DHT22;3199;49.102;8.856;2022-12-07T03:02:58;3.40;99.90
6333;DHT22;3199;49.102;8.856;2022-12-07T03:11:02;3.40;99.90
6333;DHT22;3199;49.102;8.856;2022-12-07T03:14:08;3.40;99.90
6333;DHT22;3199;49.102;8.856;2022-12-07T03:16:35;3.40;99.90
6333;DHT22;3199;49.102;8.856;2022-12-07T03:19:15;3.40;99.90
6333;DHT22;3199;49.102;8.856;2022-12-07T03:22:00;3.40;99.90
6333;DHT22;3199;49.102;8.856;2022-12-07T03:24:30;3.40;99.90
6333;DHT22;3199;49.102;8.856;2022-12-07T03:27:03;3.30;99.90
6333;DHT22;3199;49.102;8.856;2022-12-07T03:29:37;3.40;99.90
6333;DHT22;3199;49.102;8.856;2022-12-07T03:32:09;3.30;99.90
6333;DHT22;3199;49.102;8.856;2022-12-07T03:34:57;3.30;99.90
6333;DHT22;3199;49.102;8.856;2022-12-07T03:37:34;3.30;99.90
6333;DHT22;3199;49.102;8.856;2022-12-07T03:41:08;3.30;99.90
6333;DHT22;3199;49.102;8.856;2022-12-07T03:43:08;3.20;99.90
6333;DHT22;3199;49.102;8.856;2022-12-07T03:45:42;3.20;99.90
6333;DHT22;3199;49.102;8.856;2022-12-07T03:48:35;3.20;99.90
6333;DHT22;3199;49.102;8.856;2022-12-07T03:53:45;3.20;99.90
6333;DHT22;3199;49.102;8.856;2022-12-07T03:56:12;3.10;99.90
6333;DHT22;3199;49.102;8.856;2022-12-07T03:58:38;3.10;99.90
6333;DHT22;3199;49.102;8.856;2022-12-07T04:01:04;3.10;99.90
6333;DHT22;3199;49.102;8.856;2022-12-07T04:03:30;3.10;99.90
6333;DHT22;3199;49.102;8.856;2022-12-07T04:05:55;3.10;99.90
6333;DHT22;3199;49.102;8.856;2022-12-07T04:08:21;3.10;99.90
6333;DHT22;3199;49.102;8.856;2022-12-07T04:10:47;3.10;99.90
6333;DHT22;3199;49.102;8.856;2022-12-07T04:13:12;3.10;99.90
6333;DHT22;3199;49.102;8.856;2022-12-07T04:15:38;3.10;99.90
6333;DHT22;3199;49.102;8.856;2022-12-07T04:18:03;3.10;99.90
6333;DHT22;3199;49.102;8.856;2022-12-07T04:20:29;3.10;99.90
6333;DHT22;3199;49.102;8.856;2022-12-07T04:22:54;3.10;99.90
6333;DHT22;3199;49.102;8.856;2022-12-07T04:25:20;3.10;99.90
6333;DHT22;3199;49.102;8.856;2022-12-07T04:27:46;3.10;99.90
6333;DHT22;3199;49.102;8.856;2022-12-07T04:30:11;3.10;99.90
6333;DHT22;3199;49.102;8.856;2022-12-07T04:32:37;3.10;99.90
6333;DHT22;3199;49.102;8.856;2022-12-07T04:35:03;3.00;99.90
6333;DHT22;3199;49.102;8.856;2022-12-07T04:37:29;3.00;99.90
6333;DHT22;3199;49.102;8.856;2022-12-07T04:39:54;3.00;99.90
6333;DHT22;3199;49.102;8.856;2022-12-07T04:42:20;3.00;99.90
6333;DHT22;3199;49.102;8.856;2022-12-07T04:44:45;3.00;99.90
6333;DHT22;3199;49.102;8.856;2022-12-07T04:47:11;3.10;99.90
6333;DHT22;3199;49.102;8.856;2022-12-07T04:49:36;3.10;99.90
6333;DHT22;3199;49.102;8.856;2022-12-07T04:52:02;3.10;99.90
6333;DHT22;3199;49.102;8.856;2022-12-07T04:54:28;3.10;99.90
6333;DHT22;3199;49.102;8.856;2022-12-07T04:56:53;3.10;99.90
6333;DHT22;3199;49.102;8.856;2022-12-07T04:59:19;3.10;99.90
6333;DHT22;3199;49.102;8.856;2022-12-07T05:01:44;3.10;99.90
6333;DHT22;3199;49.102;8.856;2022-12-07T05:04:10;3.10;99.90
6333;DHT22;3199;49.102;8.856;2022-12-07T05:06:36;3.10;99.90
6333;DHT22;3199;49.102;8.856;2022-12-07T05:09:02;3.10;99.90
6333;DHT22;3199;49.102;8.856;2022-12-07T05:11:27;3.10;99.90
6333;DHT22;3199;49.102;8.856;2022-12-07T05:14:17;3.10;99.90
6333;DHT22;3199;49.102;8.856;2022-12-07T05:16:45;3.10;99.90
6333;DHT22;3199;49.102;8.856;2022-12-07T05:19:12;3.10;99.90
6333;DHT22;3199;49.102;8.856;2022-12-07T05:21:38;3.10;99.90
6333;DHT22;3199;49.102;8.856;2022-12-07T05:24:05;3.20;99.90
6333;DHT22;3199;49.102;8.856;2022-12-07T05:26:31;3.20;99.90
6333;DHT22;3199;49.102;8.856;2022-12-07T05:28:57;3.30;99.90
6333;DHT22;3199;49.102;8.856;2022-12-07T05:31:24;3.20;99.90
6333;DHT22;3199;49.102;8.856;2022-12-07T05:33:50;3.20;99.90
6333;DHT22;3199;49.102;8.856;2022-12-07T05:36:15;3.20;99.90
6333;DHT22;3199;49.102;8.856;2022-12-07T05:38:41;3.10;99.90
6333;DHT22;3199;49.102;8.856;2022-12-07T05:41:07;3.10;99.90
6333;DHT22;3199;49.102;8.856;2022-12-07T05:43:33;3.10;99.90
6333;DHT22;3199;49.102;8.856;2022-12-07T05:45:59;3.10;99.90
6333;DHT22;3199;49.102;8.856;2022-12-07T05:48:25;3.10;99.90
6333;DHT22;3199;49.102;8.856;2022-12-07T05:50:51;3.10;99.90
6333;DHT22;3199;49.102;8.856;2022-12-07T05:53:17;3.10;99.90
6333;DHT22;3199;49.102;8.856;2022-12-07T05:55:43;3.10;99.90
6333;DHT22;3199;49.102;8.856;2022-12-07T05:58:09;3.10;99.90
6333;DHT22;3199;49.102;8.856;2022-12-07T06:00:57;3.10;99.90
6333;DHT22;3199;49.102;8.856;2022-12-07T06:03:22;3.10;99.90
6333;DHT22;3199;49.102;8.856;2022-12-07T06:05:48;3.20;99.90
6333;DHT22;3199;49.102;8.856;2022-12-07T06:08:14;3.20;99.90
6333;DHT22;3199;49.102;8.856;2022-12-07T06:10:40;3.20;99.90
6333;DHT22;3199;49.102;8.856;2022-12-07T06:13:07;3.10;99.90
6333;DHT22;3199;49.102;8.856;2022-12-07T06:15:33;3.10;99.90
6333;DHT22;3199;49.102;8.856;2022-12-07T06:18:00;3.10;99.90
6333;DHT22;3199;49.102;8.856;2022-12-07T06:20:25;3.00;99.90
6333;DHT22;3199;49.102;8.856;2022-12-07T06:22:51;3.00;99.90
6333;DHT22;3199;49.102;8.856;2022-12-07T06:25:16;3.00;99.90
6333;DHT22;3199;49.102;8.856;2022-12-07T06:27:42;3.00;99.90
6333;DHT22;3199;49.102;8.856;2022-12-07T06:30:08;2.90;99.90
6333;DHT22;3199;49.102;8.856;2022-12-07T06:32:35;2.90;99.90
6333;DHT22;3199;49.102;8.856;2022-12-07T06:35:01;2.90;99.90
6333;DHT22;3199;49.102;8.856;2022-12-07T06:37:27;3.00;99.90
6333;DHT22;3199;49.102;8.856;2022-12-07T06:39:52;3.00;99.90
6333;DHT22;3199;49.102;8.856;2022-12-07T06:42:18;3.00;99.90
6333;DHT22;3199;49.102;8.856;2022-12-07T06:44:43;3.00;99.90
6333;DHT22;3199;49.102;8.856;2022-12-07T06:47:09;3.10;99.90
6333;DHT22;3199;49.102;8.856;2022-12-07T06:49:35;3.10;99.90
6333;DHT22;3199;49.102;8.856;2022-12-07T06:52:00;3.10;99.90
6333;DHT22;3199;49.102;8.856;2022-12-07T06:54:26;3.10;99.90
6333;DHT22;3199;49.102;8.856;2022-12-07T06:56:51;3.10;99.90
6333;DHT22;3199;49.102;8.856;2022-12-07T06:59:17;3.10;99.90
6333;DHT22;3199;49.102;8.856;2022-12-07T07:01:42;3.00;99.90
6333;DHT22;3199;49.102;8.856;2022-12-07T07:04:08;3.00;99.90
6333;DHT22;3199;49.102;8.856;2022-12-07T07:06:33;3.00;99.90
6333;DHT22;3199;49.102;8.856;2022-12-07T07:08:59;3.00;99.90
6333;DHT22;3199;49.102;8.856;2022-12-07T07:11:25;2.90;99.90
6333;DHT22;3199;49.102;8.856;2022-12-07T07:13:50;2.90;99.90
6333;DHT22;3199;49.102;8.856;2022-12-07T07:16:16;2.90;99.90
6333;DHT22;3199;49.102;8.856;2022-12-07T07:18:41;2.90;99.90
6333;DHT22;3199;49.102;8.856;2022-12-07T07:21:07;2.90;99.90
6333;DHT22;3199;49.102;8.856;2022-12-07T07:23:33;2.90;99.90
6333;DHT22;3199;49.102;8.856;2022-12-07T07:25:58;2.90;99.90
6333;DHT22;3199;49.102;8.856;2022-12-07T07:28:24;2.90;99.90
6333;DHT22;3199;49.102;8.856;2022-12-07T07:30:49;2.90;99.90
6333;DHT22;3199;49.102;8.856;2022-12-07T07:33:15;3.00;99.90
6333;DHT22;3199;49.102;8.856;2022-12-07T07:35:41;3.00;99.90
6333;DHT22;3199;49.102;8.856;2022-12-07T07:38:06;3.00;99.90
6333;DHT22;3199;49.102;8.856;2022-12-07T07:40:32;3.00;99.90
6333;DHT22;3199;49.102;8.856;2022-12-07T07:42:58;3.00;99.90
6333;DHT22;3199;49.102;8.856;2022-12-07T07:45:25;3.00;99.90
6333;DHT22;3199;49.102;8.856;2022-12-07T07:47:51;3.00;99.90
6333;DHT22;3199;49.102;8.856;2022-12-07T07:50:17;3.00;99.90
6333;DHT22;3199;49.102;8.856;2022-12-07T07:52:43;3.00;99.90
6333;DHT22;3199;49.102;8.856;2022-12-07T07:55:09;3.00;99.90
6333;DHT22;3199;49.102;8.856;2022-12-07T07:57:36;3.10;99.90
6333;DHT22;3199;49.102;8.856;2022-12-07T08:00:05;3.20;99.90
6333;DHT22;3199;49.102;8.856;2022-12-07T08:02:31;3.30;99.90
6333;DHT22;3199;49.102;8.856;2022-12-07T08:04:56;3.30;99.90
6333;DHT22;3199;49.102;8.856;2022-12-07T08:07:22;3.40;99.90
6333;DHT22;3199;49.102;8.856;2022-12-07T08:09:47;3.40;99.90
6333;DHT22;3199;49.102;8.856;2022-12-07T08:12:13;3.40;99.90
6333;DHT22;3199;49.102;8.856;2022-12-07T08:14:39;3.50;99.90
6333;DHT22;3199;49.102;8.856;2022-12-07T08:17:04;3.50;99.90
6333;DHT22;3199;49.102;8.856;2022-12-07T08:19:30;3.50;99.90
6333;DHT22;3199;49.102;8.856;2022-12-07T08:21:55;3.50;99.90
6333;DHT22;3199;49.102;8.856;2022-12-07T08:24:22;3.50;99.90
6333;DHT22;3199;49.102;8.856;2022-12-07T08:26:48;3.60;99.90
6333;DHT22;3199;49.102;8.856;2022-12-07T08:29:15;3.60;99.90
6333;DHT22;3199;49.102;8.856;2022-12-07T08:31:40;3.60;99.90
6333;DHT22;3199;49.102;8.856;2022-12-07T08:34:06;3.70;99.90
6333;DHT22;3199;49.102;8.856;2022-12-07T08:36:31;3.70;99.90
6333;DHT22;3199;49.102;8.856;2022-12-07T08:38:57;3.70;99.90
6333;DHT22;3199;49.102;8.856;2022-12-07T08:41:22;3.70;99.90
6333;DHT22;3199;49.102;8.856;2022-12-07T08:43:48;3.70;99.90
6333;DHT22;3199;49.102;8.856;2022-12-07T08:49:13;3.70;99.90
6333;DHT22;3199;49.102;8.856;2022-12-07T08:51:41;3.80;99.90
6333;DHT22;3199;49.102;8.856;2022-12-07T08:54:10;3.80;99.90
6333;DHT22;3199;49.102;8.856;2022-12-07T08:56:37;3.80;99.90
6333;DHT22;3199;49.102;8.856;2022-12-07T08:59:04;3.80;99.90
6333;DHT22;3199;49.102;8.856;2022-12-07T09:01:29;3.80;99.90
6333;DHT22;3199;49.102;8.856;2022-12-07T09:03:55;3.90;99.90
6333;DHT22;3199;49.102;8.856;2022-12-07T09:06:20;3.90;99.90
6333;DHT22;3199;49.102;8.856;2022-12-07T09:08:48;4.00;99.90
6333;DHT22;3199;49.102;8.856;2022-12-07T09:11:15;4.10;99.90
6333;DHT22;3199;49.102;8.856;2022-12-07T09:13:40;4.30;99.90
6333;DHT22;3199;49.102;8.856;2022-12-07T09:16:06;4.40;99.90
6333;DHT22;3199;49.102;8.856;2022-12-07T09:18:32;4.50;99.90
6333;DHT22;3199;49.102;8.856;2022-12-07T09:20:57;4.60;99.90
6333;DHT22;3199;49.102;8.856;2022-12-07T09:23:23;4.60;99.90
6333;DHT22;3199;49.102;8.856;2022-12-07T09:25:48;4.60;99.90
6333;DHT22;3199;49.102;8.856;2022-12-07T09:28:14;4.50;99.90
6333;DHT22;3199;49.102;8.856;2022-12-07T09:30:48;4.50;99.90
6333;DHT22;3199;49.102;8.856;2022-12-07T09:33:15;4.50;99.90
6333;DHT22;3199;49.102;8.856;2022-12-07T09:35:47;4.40;99.90
6333;DHT22;3199;49.102;8.856;2022-12-07T09:38:14;4.40;99.90
6333;DHT22;3199;49.102;8.856;2022-12-07T09:40:40;4.50;99.90
6333;DHT22;3199;49.102;8.856;2022-12-07T09:43:13;4.50;99.90
6333;DHT22;3199;49.102;8.856;2022-12-07T09:45:40;4.60;99.90
6333;DHT22;3199;49.102;8.856;2022-12-07T09:48:17;4.60;99.90
6333;DHT22;3199;49.102;8.856;2022-12-07T09:50:44;4.50;99.90
6333;DHT22;3199;49.102;8.856;2022-12-07T09:53:28;4.60;99.90
6333;DHT22;3199;49.102;8.856;2022-12-07T09:55:55;4.60;99.90
6333;DHT22;3199;49.102;8.856;2022-12-07T09:58:25;4.60;99.90
6333;DHT22;3199;49.102;8.856;2022-12-07T10:00:55;4.70;99.90
6333;DHT22;3199;49.102;8.856;2022-12-07T10:03:22;4.70;99.90
6333;DHT22;3199;49.102;8.856;2022-12-07T10:05:51;4.70;99.90
6333;DHT22;3199;49.102;8.856;2022-12-07T10:08:17;4.80;99.90
6333;DHT22;3199;49.102;8.856;2022-12-07T10:10:43;4.80;99.90
6333;DHT22;3199;49.102;8.856;2022-12-07T10:13:20;4.80;99.90
6333;DHT22;3199;49.102;8.856;2022-12-07T10:15:57;4.70;99.90
6333;DHT22;3199;49.102;8.856;2022-12-07T10:18:40;4.70;99.90
6333;DHT22;3199;49.102;8.856;2022-12-07T10:21:11;4.60;99.90
6333;DHT22;3199;49.102;8.856;2022-12-07T10:23:40;4.60;99.90
6333;DHT22;3199;49.102;8.856;2022-12-07T10:26:25;4.70;99.90
6333;DHT22;3199;49.102;8.856;2022-12-07T10:28:53;4.80;99.90
6333;DHT22;3199;49.102;8.856;2022-12-07T10:31:21;4.80;99.90
6333;DHT22;3199;49.102;8.856;2022-12-07T10:33:55;4.80;99.90
6333;DHT22;3199;49.102;8.856;2022-12-07T10:36:38;4.70;99.90
6333;DHT22;3199;49.102;8.856;2022-12-07T10:39:10;4.60;99.90
6333;DHT22;3199;49.102;8.856;2022-12-07T10:41:56;4.50;99.90
6333;DHT22;3199;49.102;8.856;2022-12-07T10:44:25;4.40;99.90
6333;DHT22;3199;49.102;8.856;2022-12-07T10:47:20;4.40;99.90
6333;DHT22;3199;49.102;8.856;2022-12-07T10:50:13;4.40;99.90
6333;DHT22;3199;49.102;8.856;2022-12-07T10:58:30;4.50;99.90
6333;DHT22;3199;49.102;8.856;2022-12-07T11:01:17;4.50;99.90
6333;DHT22;3199;49.102;8.856;2022-12-07T11:04:21;4.60;99.90
6333;DHT22;3199;49.102;8.856;2022-12-07T11:07:06;4.60;99.90
6333;DHT22;3199;49.102;8.856;2022-12-07T11:17:50;4.70;99.90
6333;DHT22;3199;49.102;8.856;2022-12-07T11:31:39;4.80;99.90
6333;DHT22;3199;49.102;8.856;2022-12-07T11:36:47;5.00;99.90
6333;DHT22;3199;49.102;8.856;2022-12-07T11:39:26;5.10;99.90
6333;DHT22;3199;49.102;8.856;2022-12-07T11:42:13;5.20;99.90
6333;DHT22;3199;49.102;8.856;2022-12-07T11:44:53;5.20;99.90
6333;DHT22;3199;49.102;8.856;2022-12-07T12:03:50;5.60;99.90
6333;DHT22;3199;49.102;8.856;2022-12-07T12:06:16;5.60;99.90
6333;DHT22;3199;49.102;8.856;2022-12-07T12:09:12;5.70;99.90
6333;DHT22;3199;49.102;8.856;2022-12-07T12:14:50;5.80;99.90
6333;DHT22;3199;49.102;8.856;2022-12-07T12:20:28;5.60;99.90
6333;DHT22;3199;49.102;8.856;2022-12-07T12:23:33;5.50;99.90
6333;DHT22;3199;49.102;8.856;2022-12-07T12:26:02;5.40;99.90
6333;DHT22;3199;49.102;8.856;2022-12-07T12:33:53;5.30;99.90
6333;DHT22;3199;49.102;8.856;2022-12-07T12:49:42;5.20;99.90
6333;DHT22;3199;49.102;8.856;2022-12-07T12:57:35;5.20;99.90
6333;DHT22;3199;49.102;8.856;2022-12-07T13:00:22;5.20;99.90
6333;DHT22;3199;49.102;8.856;2022-12-07T13:02:55;5.20;99.90
6333;DHT22;3199;49.102;8.856;2022-12-07T13:05:23;5.10;99.90
6333;DHT22;3199;49.102;8.856;2022-12-07T13:08:03;5.00;99.90
6333;DHT22;3199;49.102;8.856;2022-12-07T13:10:42;5.00;99.90
6333;DHT22;3199;49.102;8.856;2022-12-07T13:15:42;5.00;99.90
6333;DHT22;3199;49.102;8.856;2022-12-07T13:23:30;5.00;99.90
6333;DHT22;3199;49.102;8.856;2022-12-07T13:26:39;5.00;99.90
6333;DHT22;3199;49.102;8.856;2022-12-07T13:28:47;5.00;99.90
6333;DHT22;3199;49.102;8.856;2022-12-07T13:34:02;5.00;99.90
6333;DHT22;3199;49.102;8.856;2022-12-07T13:36:38;5.10;99.90
6333;DHT22;3199;49.102;8.856;2022-12-07T13:39:20;5.10;99.90
6333;DHT22;3199;49.102;8.856;2022-12-07T13:41:53;5.00;99.90
6333;DHT22;3199;49.102;8.856;2022-12-07T13:44:19;4.90;99.90
6333;DHT22;3199;49.102;8.856;2022-12-07T13:49:36;4.90;99.90
6333;DHT22;3199;49.102;8.856;2022-12-07T13:52:16;4.90;99.90
6333;DHT22;3199;49.102;8.856;2022-12-07T13:54:55;5.10;99.90
6333;DHT22;3199;49.102;8.856;2022-12-07T13:57:22;5.30;99.90
6333;DHT22;3199;49.102;8.856;2022-12-07T13:59:49;5.30;99.90
6333;DHT22;3199;49.102;8.856;2022-12-07T14:02:29;5.20;99.90
6333;DHT22;3199;49.102;8.856;2022-12-07T14:07:33;4.90;99.90
6333;DHT22;3199;49.102;8.856;2022-12-07T14:10:01;4.90;99.90
6333;DHT22;3199;49.102;8.856;2022-12-07T14:12:28;4.80;99.90
6333;DHT22;3199;49.102;8.856;2022-12-07T14:14:55;4.80;99.90
6333;DHT22;3199;49.102;8.856;2022-12-07T14:17:24;4.70;99.90
6333;DHT22;3199;49.102;8.856;2022-12-07T14:19:52;4.70;99.90
6333;DHT22;3199;49.102;8.856;2022-12-07T14:22:38;4.70;99.90
6333;DHT22;3199;49.102;8.856;2022-12-07T14:27:39;4.70;99.90
6333;DHT22;3199;49.102;8.856;2022-12-07T14:30:17;4.70;99.90
6333;DHT22;3199;49.102;8.856;2022-12-07T14:32:43;4.70;99.90
6333;DHT22;3199;49.102;8.856;2022-12-07T14:35:16;4.70;99.90
6333;DHT22;3199;49.102;8.856;2022-12-07T14:37:45;4.70;99.90
6333;DHT22;3199;49.102;8.856;2022-12-07T14:40:19;4.70;99.90
6333;DHT22;3199;49.102;8.856;2022-12-07T14:42:47;4.70;99.90
6333;DHT22;3199;49.102;8.856;2022-12-07T14:45:19;4.70;99.90
6333;DHT22;3199;49.102;8.856;2022-12-07T14:47:45;4.70;99.90
6333;DHT22;3199;49.102;8.856;2022-12-07T14:50:13;4.70;99.90
6333;DHT22;3199;49.102;8.856;2022-12-07T14:52:39;4.70;99.90
6333;DHT22;3199;49.102;8.856;2022-12-07T14:55:13;4.70;99.90
6333;DHT22;3199;49.102;8.856;2022-12-07T14:57:39;4.60;99.90
6333;DHT22;3199;49.102;8.856;2022-12-07T15:00:05;4.60;99.90
6333;DHT22;3199;49.102;8.856;2022-12-07T15:02:31;4.60;99.90
6333;DHT22;3199;49.102;8.856;2022-12-07T15:04:56;4.50;99.90
6333;DHT22;3199;49.102;8.856;2022-12-07T15:07:22;4.40;99.90
6333;DHT22;3199;49.102;8.856;2022-12-07T15:09:49;4.40;99.90
6333;DHT22;3199;49.102;8.856;2022-12-07T15:12:14;4.40;99.90
6333;DHT22;3199;49.102;8.856;2022-12-07T15:14:40;4.30;99.90
6333;DHT22;3199;49.102;8.856;2022-12-07T15:17:06;4.30;99.90
6333;DHT22;3199;49.102;8.856;2022-12-07T15:19:34;4.20;99.90
6333;DHT22;3199;49.102;8.856;2022-12-07T15:21:59;4.20;99.90
6333;DHT22;3199;49.102;8.856;2022-12-07T15:24:25;4.20;99.90
6333;DHT22;3199;49.102;8.856;2022-12-07T15:26:51;4.20;99.90
6333;DHT22;3199;49.102;8.856;2022-12-07T15:29:17;4.20;99.90
6333;DHT22;3199;49.102;8.856;2022-12-07T15:31:43;4.20;99.90
6333;DHT22;3199;49.102;8.856;2022-12-07T15:34:09;4.20;99.90
6333;DHT22;3199;49.102;8.856;2022-12-07T15:36:34;4.10;99.90
6333;DHT22;3199;49.102;8.856;2022-12-07T15:39:00;4.10;99.90
6333;DHT22;3199;49.102;8.856;2022-12-07T15:41:26;4.10;99.90
6333;DHT22;3199;49.102;8.856;2022-12-07T15:43:52;4.10;99.90
6333;DHT22;3199;49.102;8.856;2022-12-07T15:46:37;4.10;99.90
6333;DHT22;3199;49.102;8.856;2022-12-07T15:49:06;4.00;99.90
6333;DHT22;3199;49.102;8.856;2022-12-07T15:51:33;4.00;99.90
6333;DHT22;3199;49.102;8.856;2022-12-07T15:53:59;3.90;99.90
6333;DHT22;3199;49.102;8.856;2022-12-07T15:56:24;3.90;99.90
6333;DHT22;3199;49.102;8.856;2022-12-07T15:58:50;3.90;99.90
6333;DHT22;3199;49.102;8.856;2022-12-07T16:01:17;4.20;99.90
6333;DHT22;3199;49.102;8.856;2022-12-07T16:03:44;4.60;99.90
6333;DHT22;3199;49.102;8.856;2022-12-07T16:06:10;4.60;99.90
6333;DHT22;3199;49.102;8.856;2022-12-07T16:08:36;4.40;99.90
6333;DHT22;3199;49.102;8.856;2022-12-07T16:11:06;4.30;99.90
6333;DHT22;3199;49.102;8.856;2022-12-07T16:13:32;4.10;99.90
6333;DHT22;3199;49.102;8.856;2022-12-07T16:15:57;4.00;99.90
6333;DHT22;3199;49.102;8.856;2022-12-07T16:18:23;4.00;99.90
6333;DHT22;3199;49.102;8.856;2022-12-07T16:20:48;3.90;99.90
6333;DHT22;3199;49.102;8.856;2022-12-07T16:23:15;3.80;99.90
6333;DHT22;3199;49.102;8.856;2022-12-07T16:25:40;3.80;99.90
6333;DHT22;3199;49.102;8.856;2022-12-07T16:28:06;3.70;99.90
6333;DHT22;3199;49.102;8.856;2022-12-07T16:30:32;3.70;99.90
6333;DHT22;3199;49.102;8.856;2022-12-07T16:32:57;3.70;99.90
6333;DHT22;3199;49.102;8.856;2022-12-07T16:35:23;3.70;99.90
6333;DHT22;3199;49.102;8.856;2022-12-07T16:37:48;3.70;99.90
6333;DHT22;3199;49.102;8.856;2022-12-07T16:40:14;3.70;99.90
6333;DHT22;3199;49.102;8.856;2022-12-07T16:42:39;3.70;99.90
6333;DHT22;3199;49.102;8.856;2022-12-07T16:45:05;3.70;99.90
6333;DHT22;3199;49.102;8.856;2022-12-07T16:47:31;3.70;99.90
6333;DHT22;3199;49.102;8.856;2022-12-07T16:49:56;3.70;99.90
6333;DHT22;3199;49.102;8.856;2022-12-07T16:52:22;3.70;99.90
6333;DHT22;3199;49.102;8.856;2022-12-07T16:54:49;3.70;99.90
6333;DHT22;3199;49.102;8.856;2022-12-07T16:57:16;3.70;99.90
6333;DHT22;3199;49.102;8.856;2022-12-07T16:59:41;3.60;99.90
6333;DHT22;3199;49.102;8.856;2022-12-07T17:02:10;3.70;99.90
6333;DHT22;3199;49.102;8.856;2022-12-07T17:04:36;3.70;99.90
6333;DHT22;3199;49.102;8.856;2022-12-07T17:07:08;3.60;99.90
6333;DHT22;3199;49.102;8.856;2022-12-07T17:09:34;3.60;99.90
6333;DHT22;3199;49.102;8.856;2022-12-07T17:12:00;3.60;99.90
6333;DHT22;3199;49.102;8.856;2022-12-07T17:14:26;3.50;99.90
6333;DHT22;3199;49.102;8.856;2022-12-07T17:17:10;3.50;99.90
6333;DHT22;3199;49.102;8.856;2022-12-07T17:19:36;3.50;99.90
6333;DHT22;3199;49.102;8.856;2022-12-07T17:22:01;3.50;99.90
6333;DHT22;3199;49.102;8.856;2022-12-07T17:24:27;3.50;99.90
6333;DHT22;3199;49.102;8.856;2022-12-07T17:26:52;3.50;99.90
6333;DHT22;3199;49.102;8.856;2022-12-07T17:29:18;3.50;99.90
6333;DHT22;3199;49.102;8.856;2022-12-07T17:31:45;3.40;99.90
6333;DHT22;3199;49.102;8.856;2022-12-07T17:34:13;3.50;99.90
6333;DHT22;3199;49.102;8.856;2022-12-07T17:36:39;3.40;99.90
6333;DHT22;3199;49.102;8.856;2022-12-07T17:39:14;3.40;99.90
6333;DHT22;3199;49.102;8.856;2022-12-07T17:41:40;3.40;99.90
6333;DHT22;3199;49.102;8.856;2022-12-07T17:44:24;3.40;99.90
6333;DHT22;3199;49.102;8.856;2022-12-07T17:46:52;3.40;99.90
6333;DHT22;3199;49.102;8.856;2022-12-07T17:49:24;3.40;99.90
6333;DHT22;3199;49.102;8.856;2022-12-07T17:51:50;3.40;99.90
6333;DHT22;3199;49.102;8.856;2022-12-07T17:54:34;3.40;99.90
6333;DHT22;3199;49.102;8.856;2022-12-07T17:57:00;3.40;99.90
6333;DHT22;3199;49.102;8.856;2022-12-07T17:59:25;3.40;99.90
6333;DHT22;3199;49.102;8.856;2022-12-07T18:01:51;3.40;99.90
6333;DHT22;3199;49.102;8.856;2022-12-07T18:04:17;3.30;99.90
6333;DHT22;3199;49.102;8.856;2022-12-07T18:06:42;3.30;99.90
6333;DHT22;3199;49.102;8.856;2022-12-07T18:09:09;3.30;99.90
6333;DHT22;3199;49.102;8.856;2022-12-07T18:11:35;3.30;99.90
6333;DHT22;3199;49.102;8.856;2022-12-07T18:14:01;3.30;99.90
6333;DHT22;3199;49.102;8.856;2022-12-07T18:16:28;3.30;99.90
6333;DHT22;3199;49.102;8.856;2022-12-07T18:18:58;3.30;99.90
6333;DHT22;3199;49.102;8.856;2022-12-07T18:21:26;3.40;99.90
6333;DHT22;3199;49.102;8.856;2022-12-07T18:23:54;3.40;99.90
6333;DHT22;3199;49.102;8.856;2022-12-07T18:26:22;3.40;99.90
6333;DHT22;3199;49.102;8.856;2022-12-07T18:28:48;3.40;99.90